Terminal Aerodrome Forecast
Issued by NWS

Home | Current Version | Previous Version | Text Only | Print | Product List | Glossary On
Versions: 1 2 3 4 5 6 7 8 9 10 11 12 13 14 15 16 17 18 19 20 21
000
FTUS44 KOUN 061128
TAFHBR
TAF
KHBR 061128Z 0612/0712 02018G25KT P6SM SKC
     FM062100 05011KT P6SM SCT120 BKN250
     FM070300 02006KT P6SM BKN100=

USA.gov is the U.S. government's official web portal to all federal, state and local government web resources and services.